Gresham, NE (68367)

1:57 AM CST on December 19, 2014 (GMT -0600)
Centennial Public School | Change Station
CLOSE
Current Station
Personal Weather Station
Location: Utica, NE
Elevation: 1590 ft
Nearby Weather Stations

Elev 1590 ft 40.89 °N, 97.35 °W | Updated 8 minutes ago

Overcast
Overcast
29.4 °F
Feels Like 29 °F
N
0.0
Wind Variable Wind from South

Today
High -- | Low -- °F
--% Chance of Precip.
Yesterday
High -- | Low -- °F
Precip. -- in
7:50 AM 5:03 PM
Waning Crescent, 9% visible
Pressure 30.19 in
Visibility 6.0 miles
Clouds Overcast 1400 ft
Windchill 29 °F
Dew Point 28 °F
Humidity 94%
Rainfall 0.03 in
Snow Depth Not available.
UV 0 out of 12
Pollen .10 out of 12
Air Quality Not available.
Flu Activity Not available.
METAR KJYR 190735Z AUTO 20004KT 6SM BR OVC014 M02/M02 A3019 RMK AO2

More Conditions Fewer Conditions

Pressure 30.19 in
Visibility 6.0 miles
Clouds Overcast 1400 ft
Windchill 29 °F
Dew Point 28 °F
Humidity 94%
Rainfall 0.03 in
Snow Depth Not available.
UV 0 out of 12
Pollen .10 out of 12
Air Quality Not available.
Flu Activity Not available.
METAR KJYR 190735Z AUTO 20004KT 6SM BR OVC014 M02/M02 A3019 RMK AO2

More Conditions Fewer Conditions

10-Day Weather Forecast

Almanac

Astronomy

Dec. 19, 2014 Rise Set
Actual Time
Civil Twilight
Nautical Twilight
Astronomical Twilight
Moon
Length of Visible Light
Length of Day
Tomorrow will be .
, % of the Moon is Illuminated

Today's Extremes

State Highs State Lows

Community

WunderPhotos

Upload Photos

1,778,953 photos uploaded!

WunderBlogs® & News

Nearby

Air Quality

  Air Quality AQ Index Pollutant
Not available.

Snow Depth

Station Depth Elevation

Earthquake Activity

City Distance Mag. Time & Date
Minimum magnitude displayed is 2.5.

Coastal Water Temperatures

Place Temperature

Nearby Weather Stations